createdAt,value
2022-09-07T00:00:32.888Z,4.45
2022-09-07T00:01:10.564Z,4.13
2022-09-07T00:01:54.798Z,5.05
2022-09-07T00:02:35.564Z,4.50
2022-09-07T00:03:11.023Z,5.15
2022-09-07T00:03:58.341Z,5.05
2022-09-07T00:04:30.429Z,5.30
2022-09-07T00:05:02.565Z,4.70
2022-09-07T00:05:34.754Z,5.55
2022-09-07T00:06:08.962Z,4.78
2022-09-07T00:06:41.046Z,4.50
2022-09-07T00:07:13.098Z,5.43
2022-09-07T00:07:45.151Z,4.57
2022-09-07T00:08:19.644Z,4.85
2022-09-07T00:08:51.641Z,4.18
2022-09-07T00:09:23.690Z,5.30
2022-09-07T00:09:55.713Z,4.50
2022-09-07T00:10:27.854Z,5.05
2022-09-07T00:11:04.046Z,4.95
2022-09-07T00:11:36.059Z,4.65
2022-09-07T00:12:08.153Z,4.80
2022-09-07T00:12:40.278Z,4.75
2022-09-07T00:13:12.202Z,4.10
2022-09-07T00:13:46.097Z,4.70
2022-09-07T00:14:18.108Z,4.70
2022-09-07T00:14:50.173Z,4.45
2022-09-07T00:15:22.180Z,4.50
2022-09-07T00:15:54.341Z,4.75
2022-09-07T00:16:29.966Z,4.85
2022-09-07T00:17:02.024Z,4.88
2022-09-07T00:17:34.512Z,4.88
2022-09-07T00:18:06.718Z,4.45
2022-09-07T00:18:41.361Z,4.07
2022-09-07T00:19:17.322Z,4.13
2022-09-07T00:19:49.868Z,4.50
2022-09-07T00:20:22.360Z,4.55
2022-09-07T00:21:02.265Z,5.03
2022-09-07T00:21:34.406Z,4.43
2022-09-07T00:22:06.401Z,4.60
2022-09-07T00:22:39.658Z,5.43
2022-09-07T00:23:12.712Z,4.85
2022-09-07T00:23:44.932Z,4.50
2022-09-07T00:24:16.918Z,5.47
2022-09-07T00:24:48.957Z,4.45
2022-09-07T00:25:21.009Z,4.57
2022-09-07T00:25:54.183Z,4.65
2022-09-07T00:26:29.170Z,5.07
2022-09-07T00:27:01.243Z,4.75
2022-09-07T00:27:33.306Z,4.72
2022-09-07T00:28:06.892Z,4.40
2022-09-07T00:28:39.664Z,4.65
2022-09-07T00:29:11.711Z,4.32
2022-09-07T00:29:43.667Z,4.95
2022-09-07T00:30:15.867Z,5.22
2022-09-07T00:30:48.168Z,4.28
2022-09-07T00:31:34.273Z,4.20
2022-09-07T00:32:09.002Z,5.07
2022-09-07T00:32:41.054Z,4.82
2022-09-07T00:33:12.988Z,4.60
2022-09-07T00:33:46.444Z,4.80
2022-09-07T00:34:18.466Z,4.78
2022-09-07T00:34:51.242Z,5.20
2022-09-07T00:35:23.267Z,4.63
2022-09-07T00:35:55.346Z,4.28
2022-09-07T00:36:28.140Z,4.20
2022-09-07T00:37:00.424Z,4.43
2022-09-07T00:37:32.530Z,5.03
2022-09-07T00:38:04.528Z,4.72
2022-09-07T00:38:37.188Z,5.05
2022-09-07T00:39:09.548Z,4.45
2022-09-07T00:39:41.698Z,4.80
2022-09-07T00:40:13.725Z,5.30
2022-09-07T00:40:46.041Z,4.50
2022-09-07T00:41:19.758Z,4.65
2022-09-07T00:41:52.027Z,4.60
2022-09-07T00:42:24.063Z,5.10
2022-09-07T00:42:56.207Z,5.47
2022-09-07T00:43:39.556Z,4.18
2022-09-07T00:44:56.582Z,4.80
2022-09-07T00:45:28.468Z,4.82
2022-09-07T00:46:01.059Z,4.47
2022-09-07T00:46:32.874Z,5.07
2022-09-07T00:47:13.002Z,4.28
2022-09-07T00:48:18.397Z,4.97
2022-09-07T00:49:10.610Z,5.07
2022-09-07T00:49:46.306Z,4.50
2022-09-07T00:50:25.913Z,5.53
2022-09-07T00:51:02.846Z,4.40
2022-09-07T00:51:48.170Z,4.70
2022-09-07T00:52:22.387Z,5.28
2022-09-07T00:53:05.801Z,4.57
2022-09-07T00:53:41.996Z,4.70
2022-09-07T00:54:21.920Z,4.60
2022-09-07T00:54:58.226Z,4.45
2022-09-07T00:55:32.195Z,5.05
2022-09-07T00:56:05.325Z,5.57
2022-09-07T00:56:40.966Z,5.55
2022-09-07T00:57:14.045Z,4.85
2022-09-07T00:57:50.617Z,4.60
2022-09-07T00:58:23.923Z,4.88
2022-09-07T00:58:56.261Z,4.82
2022-09-07T00:59:34.509Z,4.63
2022-09-07T01:00:07.259Z,4.95
2022-09-07T01:00:41.919Z,4.40
2022-09-07T01:01:14.698Z,5.53
2022-09-07T01:01:46.730Z,4.50
2022-09-07T01:02:20.103Z,5.00
2022-09-07T01:02:55.524Z,5.20
2022-09-07T01:03:32.149Z,5.18
2022-09-07T01:04:04.230Z,4.22
2022-09-07T01:04:36.566Z,3.80
2022-09-07T01:05:17.154Z,4.95
2022-09-07T01:06:30.941Z,4.72
2022-09-07T01:07:03.592Z,4.28
2022-09-07T01:07:36.435Z,4.80
2022-09-07T01:08:09.401Z,4.80
2022-09-07T01:08:42.869Z,4.88
2022-09-07T01:09:18.682Z,4.68
2022-09-07T01:09:50.812Z,5.00
2022-09-07T01:10:26.901Z,4.63
2022-09-07T01:11:00.272Z,4.60
2022-09-07T01:11:35.331Z,5.90
2022-09-07T01:12:07.401Z,4.93
2022-09-07T01:12:39.210Z,4.90
2022-09-07T01:13:11.007Z,4.45
2022-09-07T01:13:45.141Z,5.88
2022-09-07T01:14:31.007Z,4.20
2022-09-07T01:15:03.192Z,5.45
2022-09-07T01:15:40.803Z,5.32
2022-09-07T01:16:33.259Z,4.97
2022-09-07T01:17:26.839Z,4.57
2022-09-07T01:18:14.179Z,4.35
2022-09-07T01:19:08.371Z,4.32
2022-09-07T01:20:02.034Z,4.72
2022-09-07T01:21:10.729Z,3.80
2022-09-07T01:22:42.373Z,4.13
2022-09-07T01:23:26.263Z,5.03
2022-09-07T01:24:40.436Z,4.22
2022-09-07T01:25:14.838Z,4.53
2022-09-07T01:25:49.352Z,4.82
2022-09-07T01:27:18.340Z,5.22
2022-09-07T01:28:08.443Z,4.40
2022-09-07T01:28:42.208Z,4.37
2022-09-07T01:29:31.561Z,5.00
2022-09-07T01:30:06.336Z,5.47
2022-09-07T01:30:42.303Z,4.78
2022-09-07T01:31:23.006Z,4.32
2022-09-07T01:33:01.634Z,4.13
2022-09-07T01:33:55.454Z,4.65
2022-09-07T01:34:27.344Z,4.60
2022-09-07T01:35:04.466Z,5.22
2022-09-07T01:35:49.586Z,4.85
2022-09-07T01:36:33.356Z,5.25
2022-09-07T01:37:15.922Z,4.78
2022-09-07T01:38:07.672Z,4.72
2022-09-07T01:38:47.834Z,5.97
2022-09-07T01:39:26.357Z,4.85
2022-09-07T01:40:07.905Z,5.40
2022-09-07T01:40:50.617Z,4.93
2022-09-07T01:41:59.053Z,5.00
2022-09-07T01:42:36.010Z,5.20
2022-09-07T01:43:15.000Z,5.32
2022-09-07T01:44:02.243Z,4.93
2022-09-07T01:44:46.649Z,4.35
2022-09-07T01:45:22.597Z,5.55
2022-09-07T01:45:58.435Z,4.82
2022-09-07T01:46:37.110Z,5.20
2022-09-07T01:47:24.301Z,5.13
2022-09-07T01:48:01.019Z,4.75
2022-09-07T01:48:37.527Z,4.38
2022-09-07T01:49:17.930Z,5.65
2022-09-07T01:50:01.977Z,5.13
2022-09-07T01:50:42.635Z,4.60
2022-09-07T01:51:52.909Z,5.53
2022-09-07T01:52:33.548Z,5.22
2022-09-07T01:53:58.141Z,4.28
2022-09-07T01:54:34.597Z,5.35
2022-09-07T01:55:06.894Z,5.55
2022-09-07T01:55:45.447Z,5.25
2022-09-07T01:56:23.984Z,4.95
2022-09-07T01:57:02.474Z,5.10
2022-09-07T01:57:42.492Z,5.70
2022-09-07T01:58:39.553Z,5.32
2022-09-07T01:59:22.332Z,5.18
2022-09-07T01:59:58.813Z,5.53
2022-09-07T02:00:31.192Z,5.60
2022-09-07T02:01:11.215Z,5.45
2022-09-07T02:01:57.722Z,4.68
2022-09-07T02:02:34.286Z,5.53
2022-09-07T02:03:15.159Z,4.85
2022-09-07T02:03:49.574Z,5.32
2022-09-07T02:04:52.387Z,4.80
2022-09-07T02:05:35.629Z,5.35
2022-09-07T02:06:22.485Z,5.22
2022-09-07T02:07:21.073Z,5.60
2022-09-07T02:08:27.200Z,5.68
2022-09-07T02:09:03.507Z,5.25
2022-09-07T02:09:59.512Z,4.72
2022-09-07T02:10:48.216Z,4.93
2022-09-07T02:11:24.919Z,4.95
2022-09-07T02:11:57.621Z,5.13
2022-09-07T02:13:07.033Z,5.00
2022-09-07T02:13:46.288Z,4.80
2022-09-07T02:14:25.024Z,5.03
2022-09-07T02:15:02.298Z,5.30
2022-09-07T02:15:46.679Z,5.03
2022-09-07T02:16:23.844Z,4.88
2022-09-07T02:17:04.327Z,4.75
2022-09-07T02:17:42.605Z,5.50
2022-09-07T02:18:14.612Z,4.68
2022-09-07T02:18:50.630Z,5.00
2022-09-07T02:19:27.411Z,4.80
2022-09-07T02:20:07.566Z,4.80
2022-09-07T02:20:42.384Z,6.18
2022-09-07T02:21:24.232Z,5.43
2022-09-07T02:22:05.027Z,4.90
2022-09-07T02:22:42.290Z,4.95
2022-09-07T02:23:20.659Z,4.72
2022-09-07T02:24:00.713Z,4.88
2022-09-07T02:24:38.819Z,5.28
2022-09-07T02:25:17.465Z,5.30
2022-09-07T02:25:55.271Z,4.82
2022-09-07T02:26:29.573Z,5.10
2022-09-07T02:27:12.403Z,4.47
2022-09-07T02:27:49.771Z,5.10
2022-09-07T02:28:27.998Z,5.47
2022-09-07T02:28:59.982Z,4.60
2022-09-07T02:29:32.462Z,4.28
2022-09-07T02:30:04.515Z,4.22
2022-09-07T02:30:37.181Z,4.32
2022-09-07T02:31:09.430Z,5.32
2022-09-07T02:31:41.859Z,4.90
2022-09-07T02:32:13.858Z,4.80
2022-09-07T02:32:45.740Z,4.70
2022-09-07T02:33:17.956Z,5.78
2022-09-07T02:33:49.880Z,5.38
2022-09-07T02:34:21.831Z,5.18
2022-09-07T02:34:53.606Z,5.60
2022-09-07T02:35:25.900Z,4.93
2022-09-07T02:35:58.370Z,5.47
2022-09-07T02:36:35.809Z,4.57
2022-09-07T02:37:09.389Z,5.32
2022-09-07T02:37:43.682Z,4.85
2022-09-07T02:38:15.695Z,5.00
2022-09-07T02:38:47.585Z,5.00
2022-09-07T02:39:19.540Z,5.18
2022-09-07T02:39:51.466Z,4.82
2022-09-07T02:40:23.415Z,4.60
2022-09-07T02:40:57.643Z,4.13
2022-09-07T02:41:33.844Z,4.45
2022-09-07T02:42:06.083Z,5.22
2022-09-07T02:42:38.915Z,4.38
2022-09-07T02:43:11.621Z,4.40
2022-09-07T02:43:43.428Z,4.50
2022-09-07T02:44:31.438Z,4.57
2022-09-07T02:45:07.364Z,4.55
2022-09-07T02:45:50.727Z,4.57
2022-09-07T02:46:51.451Z,4.65
2022-09-07T02:47:53.796Z,4.30
2022-09-07T02:48:48.620Z,4.43
2022-09-07T02:49:42.583Z,4.80
2022-09-07T02:50:39.400Z,3.95
2022-09-07T02:51:20.190Z,4.13
2022-09-07T02:52:07.171Z,4.40
2022-09-07T02:52:53.278Z,4.38
2022-09-07T02:53:31.890Z,5.65
2022-09-07T02:54:19.729Z,4.32
2022-09-07T02:55:05.303Z,4.40
2022-09-07T02:56:01.435Z,4.45
2022-09-07T02:56:54.747Z,4.68
2022-09-07T02:57:46.849Z,4.63
2022-09-07T02:58:52.272Z,4.10
2022-09-07T02:59:30.934Z,4.43
2022-09-07T03:00:11.190Z,4.47
2022-09-07T03:00:53.168Z,4.78
2022-09-07T03:01:55.580Z,4.57
2022-09-07T03:02:57.895Z,4.35
2022-09-07T03:04:01.989Z,4.30
2022-09-07T03:04:49.065Z,4.85
2022-09-07T03:05:23.164Z,4.88
2022-09-07T03:06:14.244Z,3.85
2022-09-07T03:06:59.515Z,4.70
2022-09-07T03:07:55.059Z,4.00
2022-09-07T03:08:34.954Z,4.07
2022-09-07T03:09:18.988Z,4.18
2022-09-07T03:09:55.021Z,4.32
2022-09-07T03:10:29.988Z,4.70
2022-09-07T03:11:04.822Z,4.65
2022-09-07T03:11:37.714Z,4.78
2022-09-07T03:12:10.259Z,3.80
2022-09-07T03:12:45.855Z,3.95
2022-09-07T03:13:36.042Z,4.55
2022-09-07T03:14:22.475Z,4.50
2022-09-07T03:14:54.352Z,4.15
2022-09-07T03:15:27.793Z,4.07
2022-09-07T03:15:59.784Z,4.13
2022-09-07T03:16:31.700Z,4.15
2022-09-07T03:17:03.625Z,4.05
2022-09-07T03:17:35.496Z,3.90
2022-09-07T03:18:07.502Z,4.15
2022-09-07T03:18:40.001Z,5.10
2022-09-07T03:19:11.970Z,4.03
2022-09-07T03:19:44.101Z,4.68
2022-09-07T03:20:17.273Z,3.83
2022-09-07T03:20:49.199Z,4.30
2022-09-07T03:21:21.351Z,4.30
2022-09-07T03:21:53.473Z,4.60
2022-09-07T03:22:25.425Z,4.28
2022-09-07T03:22:57.328Z,4.20
2022-09-07T03:23:30.572Z,4.13
2022-09-07T03:24:02.643Z,4.93
2022-09-07T03:24:34.690Z,4.13
2022-09-07T03:25:07.317Z,4.22
2022-09-07T03:25:39.314Z,4.55
2022-09-07T03:26:24.269Z,4.80
2022-09-07T03:26:56.656Z,4.68
2022-09-07T03:27:28.534Z,4.88
2022-09-07T03:28:00.596Z,4.53
2022-09-07T03:28:32.527Z,4.47
2022-09-07T03:29:04.696Z,4.18
2022-09-07T03:29:40.198Z,4.50
2022-09-07T03:30:14.254Z,4.00
2022-09-07T03:30:47.522Z,4.57
2022-09-07T03:31:20.429Z,4.75
2022-09-07T03:31:52.533Z,4.10
2022-09-07T03:32:24.868Z,4.05
2022-09-07T03:32:56.874Z,4.40
2022-09-07T03:33:28.849Z,4.88
2022-09-07T03:34:00.996Z,4.18
2022-09-07T03:34:33.414Z,3.95
2022-09-07T03:35:07.144Z,4.65
2022-09-07T03:35:39.067Z,4.03
2022-09-07T03:36:11.007Z,4.38
2022-09-07T03:36:42.961Z,4.35
2022-09-07T03:37:15.266Z,4.22
2022-09-07T03:37:47.138Z,4.90
2022-09-07T03:38:19.110Z,4.45
2022-09-07T03:38:51.000Z,4.15
2022-09-07T03:39:24.290Z,4.47
2022-09-07T03:39:56.330Z,4.28
2022-09-07T03:40:28.354Z,4.05
2022-09-07T03:41:02.854Z,4.22
2022-09-07T03:41:34.867Z,4.53
2022-09-07T03:42:07.073Z,4.28
2022-09-07T03:42:39.757Z,4.22
2022-09-07T03:43:12.403Z,4.30
2022-09-07T03:43:44.415Z,4.25
2022-09-07T03:44:16.503Z,4.18
2022-09-07T03:44:51.629Z,4.28
2022-09-07T03:45:23.474Z,4.47
2022-09-07T03:46:00.193Z,4.10
2022-09-07T03:46:32.810Z,3.80
2022-09-07T03:47:04.857Z,4.55
2022-09-07T03:47:38.137Z,4.40
2022-09-07T03:48:10.087Z,4.32
2022-09-07T03:48:42.219Z,4.38
2022-09-07T03:49:15.777Z,4.28
2022-09-07T03:49:49.058Z,4.18
2022-09-07T03:50:21.320Z,4.45
2022-09-07T03:51:05.204Z,4.53
2022-09-07T03:51:39.314Z,4.60
2022-09-07T03:52:11.386Z,3.67
2022-09-07T03:52:43.570Z,4.35
2022-09-07T03:53:15.810Z,3.92
2022-09-07T03:53:48.228Z,3.92
2022-09-07T03:54:20.273Z,3.78
2022-09-07T03:54:52.349Z,4.15
2022-09-07T03:55:26.583Z,4.05
2022-09-07T03:56:10.820Z,4.22
2022-09-07T03:56:42.985Z,3.65
2022-09-07T03:57:15.048Z,3.97
2022-09-07T03:57:47.069Z,4.07
2022-09-07T03:58:18.990Z,4.32
2022-09-07T03:58:51.514Z,4.82
2022-09-07T03:59:23.600Z,3.97
2022-09-07T03:59:55.906Z,4.53
2022-09-07T04:00:28.038Z,3.63
2022-09-07T04:01:04.546Z,4.70
2022-09-07T04:01:37.190Z,4.43
2022-09-07T04:02:09.364Z,4.25
2022-09-07T04:02:41.440Z,4.18
2022-09-07T04:03:13.374Z,4.05
2022-09-07T04:03:46.129Z,3.78
2022-09-07T04:04:18.078Z,4.22
2022-09-07T04:04:50.847Z,4.30
2022-09-07T04:05:23.136Z,5.00
2022-09-07T04:05:55.193Z,5.00
2022-09-07T04:06:27.241Z,4.07
2022-09-07T04:06:59.377Z,4.63
2022-09-07T04:07:31.251Z,4.25
2022-09-07T04:08:03.124Z,4.55
2022-09-07T04:08:36.788Z,4.47
2022-09-07T04:09:14.096Z,4.15
2022-09-07T04:09:46.281Z,4.38
2022-09-07T04:10:18.225Z,5.50
2022-09-07T04:10:53.181Z,4.22
2022-09-07T04:11:25.158Z,4.25
2022-09-07T04:11:57.113Z,4.35
2022-09-07T04:12:31.724Z,4.65
2022-09-07T04:13:03.937Z,5.30
2022-09-07T04:13:36.880Z,4.93
2022-09-07T04:14:10.141Z,5.18
2022-09-07T04:14:42.304Z,4.63
2022-09-07T04:15:14.384Z,3.90
2022-09-07T04:15:49.022Z,4.45
2022-09-07T04:16:25.904Z,4.07
2022-09-07T04:16:59.095Z,4.65
2022-09-07T04:17:31.197Z,4.65
2022-09-07T04:18:04.230Z,4.53
2022-09-07T04:18:37.584Z,4.25
2022-09-07T04:19:09.666Z,4.93
2022-09-07T04:19:41.966Z,4.22
2022-09-07T04:20:15.399Z,5.13
2022-09-07T04:20:47.837Z,4.05
2022-09-07T04:21:22.912Z,4.13
2022-09-07T04:21:55.198Z,5.22
2022-09-07T04:22:29.764Z,4.05
2022-09-07T04:23:01.974Z,4.30
2022-09-07T04:23:34.448Z,3.78
2022-09-07T04:24:06.815Z,4.80
2022-09-07T04:24:38.810Z,4.50
2022-09-07T04:25:10.922Z,4.50
2022-09-07T04:25:51.766Z,4.13
2022-09-07T04:26:27.019Z,4.22
2022-09-07T04:26:59.607Z,4.82
2022-09-07T04:27:33.887Z,5.00
2022-09-07T04:28:11.333Z,4.97
2022-09-07T04:28:56.175Z,4.93
2022-09-07T04:29:38.750Z,4.28
2022-09-07T04:30:18.869Z,4.45
2022-09-07T04:31:07.228Z,4.43
2022-09-07T04:31:44.111Z,4.47
2022-09-07T04:32:19.305Z,4.43
2022-09-07T04:32:51.417Z,3.95
2022-09-07T04:33:23.591Z,4.15
2022-09-07T04:33:56.073Z,4.55
2022-09-07T04:34:28.095Z,4.28
2022-09-07T04:35:00.041Z,4.15
2022-09-07T04:35:36.395Z,4.63
2022-09-07T04:36:08.967Z,5.25
2022-09-07T04:36:41.114Z,4.28
2022-09-07T04:37:12.994Z,4.97
2022-09-07T04:37:45.378Z,4.50
2022-09-07T04:38:17.505Z,5.28
2022-09-07T04:38:57.379Z,4.40
2022-09-07T04:39:29.479Z,5.10
2022-09-07T04:40:01.651Z,4.60
2022-09-07T04:40:34.257Z,4.70
2022-09-07T04:41:09.499Z,5.40
2022-09-07T04:41:41.572Z,4.95
2022-09-07T04:42:19.872Z,4.22
2022-09-07T04:42:54.729Z,5.13
2022-09-07T04:43:40.736Z,4.28
2022-09-07T04:44:16.750Z,5.93
2022-09-07T04:44:55.001Z,5.03
2022-09-07T04:45:27.260Z,4.55
2022-09-07T04:46:07.254Z,4.25
2022-09-07T04:46:39.405Z,4.35
2022-09-07T04:47:20.100Z,4.85
2022-09-07T04:47:52.282Z,4.63
2022-09-07T04:48:24.981Z,4.00
2022-09-07T04:49:02.444Z,4.78
2022-09-07T04:49:37.189Z,5.25
2022-09-07T04:50:09.791Z,4.43
2022-09-07T04:50:42.114Z,4.82
2022-09-07T04:51:15.061Z,4.40
2022-09-07T04:51:49.778Z,4.75
2022-09-07T04:52:26.614Z,4.15
2022-09-07T04:53:01.359Z,4.32
2022-09-07T04:53:38.323Z,4.15
2022-09-07T04:54:10.880Z,3.90
2022-09-07T04:54:43.669Z,4.90
2022-09-07T04:55:16.738Z,4.22
2022-09-07T04:55:48.885Z,4.85
2022-09-07T04:56:22.685Z,4.47
2022-09-07T04:56:54.902Z,4.00
2022-09-07T04:57:27.116Z,3.55
2022-09-07T04:57:59.271Z,4.32
2022-09-07T04:58:32.517Z,4.45
2022-09-07T04:59:04.980Z,5.03
2022-09-07T04:59:37.181Z,5.10
2022-09-07T05:00:12.940Z,5.70
2022-09-07T05:00:47.265Z,4.75
2022-09-07T05:01:25.350Z,5.70
2022-09-07T05:01:58.008Z,6.30
2022-09-07T05:02:30.346Z,6.43
2022-09-07T05:03:02.268Z,5.15
2022-09-07T05:03:38.396Z,6.40
2022-09-07T05:04:10.581Z,6.72
2022-09-07T05:04:42.834Z,6.43
2022-09-07T05:05:15.436Z,6.85
2022-09-07T05:05:47.550Z,6.57
2022-09-07T05:06:21.404Z,6.93
2022-09-07T05:06:54.708Z,7.07
2022-09-07T05:07:26.919Z,6.85
2022-09-07T05:08:01.872Z,7.88
2022-09-07T05:08:42.858Z,6.97
2022-09-07T05:09:14.880Z,7.30
2022-09-07T05:09:47.724Z,7.07
2022-09-07T05:10:19.910Z,7.38
2022-09-07T05:10:53.507Z,6.50
2022-09-07T05:11:29.356Z,6.95
2022-09-07T05:12:02.322Z,6.60
2022-09-07T05:12:34.349Z,5.93
2022-09-07T05:13:06.635Z,6.32
2022-09-07T05:13:39.207Z,6.15
2022-09-07T05:14:11.531Z,6.72
2022-09-07T05:14:43.875Z,6.32
2022-09-07T05:15:16.016Z,6.28
2022-09-07T05:15:48.312Z,5.72
2022-09-07T05:16:23.575Z,5.50
2022-09-07T05:16:55.935Z,6.22
2022-09-07T05:17:28.765Z,5.60
2022-09-07T05:18:00.911Z,6.57
2022-09-07T05:18:34.286Z,5.63
2022-09-07T05:19:12.450Z,6.32
2022-09-07T05:19:50.613Z,5.85
2022-09-07T05:20:24.687Z,5.07
2022-09-07T05:21:06.689Z,5.75
2022-09-07T05:21:39.342Z,5.93
2022-09-07T05:22:11.727Z,6.18
2022-09-07T05:22:43.932Z,6.22
2022-09-07T05:23:19.070Z,4.95
2022-09-07T05:23:53.166Z,5.60
2022-09-07T05:24:27.254Z,5.05
2022-09-07T05:25:00.236Z,5.82
2022-09-07T05:25:34.618Z,5.68
2022-09-07T05:26:07.723Z,6.50
2022-09-07T05:26:40.432Z,5.75
2022-09-07T05:27:12.561Z,4.88
2022-09-07T05:27:44.641Z,5.78
2022-09-07T05:28:19.406Z,5.15
2022-09-07T05:28:52.682Z,5.90
2022-09-07T05:31:18.949Z,5.93
2022-09-07T05:31:51.732Z,6.05
2022-09-07T05:32:49.583Z,5.22
2022-09-07T05:33:21.586Z,5.45
2022-09-07T05:34:49.659Z,5.60
2022-09-07T05:35:29.096Z,5.75
2022-09-07T05:36:01.673Z,5.43
2022-09-07T05:36:33.546Z,5.10
2022-09-07T05:37:05.589Z,5.70
2022-09-07T05:37:37.956Z,5.18
2022-09-07T05:38:09.910Z,6.47
2022-09-07T05:38:42.037Z,5.55
2022-09-07T05:39:14.080Z,5.72
2022-09-07T05:39:46.197Z,5.15
2022-09-07T05:40:23.162Z,5.72
2022-09-07T05:40:55.175Z,7.00
2022-09-07T05:41:27.796Z,6.15
2022-09-07T05:41:59.790Z,6.35
2022-09-07T05:42:31.724Z,5.95
2022-09-07T05:43:06.077Z,5.80
2022-09-07T05:44:47.145Z,5.80
2022-09-07T05:45:19.296Z,5.68
2022-09-07T05:45:54.616Z,6.10
2022-09-07T05:46:26.377Z,4.88
2022-09-07T05:46:58.133Z,5.50
2022-09-07T05:47:29.847Z,4.90
2022-09-07T05:48:01.769Z,4.63
2022-09-07T05:48:33.836Z,5.38
2022-09-07T05:49:07.966Z,4.40
2022-09-07T05:49:40.078Z,4.72
2022-09-07T05:50:11.926Z,4.60
2022-09-07T05:50:51.221Z,4.18
2022-09-07T05:51:23.113Z,4.38
2022-09-07T05:51:54.905Z,4.15
2022-09-07T05:52:26.673Z,4.25
2022-09-07T05:52:59.126Z,3.85
2022-09-07T05:53:33.759Z,4.93
2022-09-07T05:54:05.959Z,3.42
2022-09-07T05:54:37.877Z,3.58
2022-09-07T05:55:28.707Z,4.05
2022-09-07T05:56:06.497Z,4.47
2022-09-07T05:56:39.125Z,4.18
2022-09-07T05:57:12.631Z,4.13
2022-09-07T05:57:44.510Z,4.85
2022-09-07T05:58:17.304Z,3.92
2022-09-07T05:58:49.692Z,3.92
2022-09-07T05:59:21.514Z,4.00
2022-09-07T05:59:53.353Z,4.75
2022-09-07T06:00:25.372Z,4.50
2022-09-07T06:01:02.008Z,4.38
2022-09-07T06:01:35.382Z,4.35
2022-09-07T06:02:07.632Z,4.50
2022-09-07T06:02:40.009Z,4.90
2022-09-07T06:03:13.131Z,4.07
2022-09-07T06:03:44.957Z,4.75
2022-09-07T06:04:16.821Z,4.63
2022-09-07T06:04:48.894Z,5.13
2022-09-07T06:05:20.849Z,5.55
2022-09-07T06:06:04.173Z,4.75
2022-09-07T06:06:38.887Z,4.43
2022-09-07T06:07:28.510Z,4.35
2022-09-07T06:08:00.473Z,4.32
2022-09-07T06:08:33.806Z,3.53
2022-09-07T06:09:05.675Z,4.13
2022-09-07T06:10:43.427Z,3.30
2022-09-07T06:11:18.612Z,3.50
2022-09-07T06:11:50.463Z,3.88
2022-09-07T06:12:22.402Z,3.72
2022-09-07T06:12:54.242Z,3.85
2022-09-07T06:13:26.937Z,4.25
2022-09-07T06:13:58.843Z,3.85
2022-09-07T06:14:30.746Z,3.38
2022-09-07T06:15:02.792Z,2.90
2022-09-07T06:15:34.770Z,3.03
2022-09-07T06:16:08.281Z,3.80
2022-09-07T06:16:40.315Z,3.78
2022-09-07T06:17:12.266Z,3.58
2022-09-07T06:17:44.141Z,3.30
2022-09-07T06:18:15.961Z,2.40
2022-09-07T06:18:49.646Z,3.60
2022-09-07T06:19:21.461Z,2.55
2022-09-07T06:19:53.267Z,2.83
2022-09-07T06:20:25.178Z,3.00
2022-09-07T06:21:02.602Z,3.33
2022-09-07T06:21:37.064Z,3.58
2022-09-07T06:22:08.814Z,3.20
2022-09-07T06:22:40.868Z,3.45
2022-09-07T06:23:12.782Z,4.18
2022-09-07T06:23:46.041Z,3.40
2022-09-07T06:24:17.955Z,3.10
2022-09-07T06:24:49.981Z,4.15
2022-09-07T06:25:21.881Z,3.20
2022-09-07T06:25:53.910Z,3.65
2022-09-07T06:26:25.791Z,2.95
2022-09-07T06:26:57.617Z,3.05
2022-09-07T06:27:29.477Z,3.63
2022-09-07T06:28:01.304Z,3.85
2022-09-07T06:28:41.414Z,3.40
2022-09-07T06:29:13.387Z,3.65
2022-09-07T06:29:45.302Z,3.17
2022-09-07T06:30:17.149Z,3.50
2022-09-07T06:30:48.939Z,3.28
2022-09-07T06:31:23.322Z,3.80
2022-09-07T06:32:47.425Z,4.28
2022-09-07T06:33:21.994Z,3.88
2022-09-07T06:33:54.649Z,4.32
2022-09-07T06:34:26.388Z,3.65
2022-09-07T06:34:58.306Z,3.80
2022-09-07T06:35:30.006Z,3.50
2022-09-07T06:36:05.396Z,3.60
2022-09-07T06:36:37.192Z,3.60
2022-09-07T06:37:08.913Z,3.55
2022-09-07T06:37:40.904Z,3.17
2022-09-07T06:38:12.589Z,4.20
2022-09-07T06:38:45.345Z,3.75
2022-09-07T06:39:17.086Z,3.80
2022-09-07T06:39:49.349Z,3.30
2022-09-07T06:40:21.187Z,4.13
2022-09-07T06:42:00.054Z,3.30
2022-09-07T06:42:35.156Z,3.60
2022-09-07T06:43:07.513Z,3.70
2022-09-07T06:43:44.108Z,3.67
2022-09-07T06:44:17.856Z,4.50
2022-09-07T06:44:49.698Z,3.53
2022-09-07T06:45:21.571Z,3.58
2022-09-07T06:45:56.641Z,3.75
2022-09-07T06:47:20.177Z,4.03
2022-09-07T06:47:54.141Z,4.13
2022-09-07T06:48:26.117Z,4.10
2022-09-07T06:48:57.853Z,3.53
2022-09-07T06:49:29.577Z,3.67
2022-09-07T06:50:01.444Z,4.10
2022-09-07T06:50:33.693Z,3.58
2022-09-07T06:51:07.810Z,4.10
2022-09-07T06:51:39.520Z,3.85
2022-09-07T06:52:11.257Z,3.35
2022-09-07T06:53:38.577Z,3.28
2022-09-07T06:55:04.439Z,3.33
2022-09-07T06:55:44.163Z,3.00
2022-09-07T06:56:18.176Z,3.55
2022-09-07T06:56:49.911Z,3.85
2022-09-07T06:57:21.614Z,3.35
2022-09-07T06:57:54.337Z,3.70
2022-09-07T06:58:26.264Z,3.75
2022-09-07T06:58:58.486Z,3.42
2022-09-07T06:59:30.178Z,3.53
2022-09-07T07:00:02.123Z,4.28
2022-09-07T07:00:33.967Z,3.40
2022-09-07T07:01:09.940Z,4.18
2022-09-07T07:01:41.639Z,3.40
2022-09-07T07:02:15.073Z,3.65
2022-09-07T07:02:46.875Z,3.42
2022-09-07T07:03:19.057Z,3.33
2022-09-07T07:03:52.768Z,3.70
2022-09-07T07:04:24.656Z,3.90
2022-09-07T07:04:56.374Z,4.05
2022-09-07T07:05:28.106Z,3.90
2022-09-07T07:05:59.856Z,3.63
2022-09-07T07:06:36.315Z,3.72
2022-09-07T07:07:12.316Z,4.40
2022-09-07T07:07:44.022Z,4.20
2022-09-07T07:08:15.793Z,4.60
2022-09-07T07:08:47.882Z,4.20
2022-09-07T07:09:19.622Z,4.43
2022-09-07T07:09:51.365Z,3.85
2022-09-07T07:10:24.912Z,4.30
2022-09-07T07:11:05.673Z,3.78
2022-09-07T07:11:37.655Z,3.58
2022-09-07T07:12:10.836Z,3.22
2022-09-07T07:13:45.285Z,3.30
2022-09-07T07:14:18.078Z,3.15
2022-09-07T07:14:49.814Z,3.33
2022-09-07T07:15:21.548Z,2.70
2022-09-07T07:15:53.910Z,3.22
2022-09-07T07:16:26.255Z,3.60
2022-09-07T07:16:58.017Z,3.13
2022-09-07T07:17:29.803Z,3.28
2022-09-07T07:18:19.343Z,3.00
2022-09-07T07:19:28.374Z,3.05
2022-09-07T07:20:00.154Z,3.40
2022-09-07T07:20:32.163Z,3.10
2022-09-07T07:21:06.319Z,2.63
2022-09-07T07:22:03.454Z,2.65
2022-09-07T07:22:46.092Z,2.70
2022-09-07T07:23:18.804Z,2.80
2022-09-07T07:23:51.992Z,2.83
2022-09-07T07:24:23.714Z,3.67
2022-09-07T07:24:55.431Z,2.95
2022-09-07T07:25:27.207Z,3.10
2022-09-07T07:26:05.086Z,2.88
2022-09-07T07:26:36.799Z,3.22
2022-09-07T07:27:08.559Z,2.72
2022-09-07T07:27:40.387Z,2.72
2022-09-07T07:29:04.457Z,2.53
2022-09-07T07:29:36.473Z,2.60
2022-09-07T07:30:08.736Z,2.60
2022-09-07T07:30:40.477Z,2.38
2022-09-07T07:31:13.273Z,2.85
2022-09-07T07:31:45.393Z,2.30
2022-09-07T07:32:17.272Z,2.90
2022-09-07T07:32:49.057Z,2.67
2022-09-07T07:34:03.794Z,2.60
2022-09-07T07:34:35.652Z,3.20
2022-09-07T07:35:08.767Z,2.55
2022-09-07T07:35:40.463Z,2.97
2022-09-07T07:36:15.490Z,2.55
2022-09-07T07:36:47.191Z,3.20
2022-09-07T07:37:18.966Z,2.88
2022-09-07T07:39:03.433Z,3.20
2022-09-07T07:40:30.989Z,2.97
2022-09-07T07:41:57.520Z,2.30
2022-09-07T07:42:32.620Z,2.90
2022-09-07T07:43:04.409Z,2.88
2022-09-07T07:43:36.373Z,2.90
2022-09-07T07:44:08.845Z,3.38
2022-09-07T07:44:40.500Z,3.25
2022-09-07T07:46:06.168Z,3.20
2022-09-07T07:46:38.157Z,2.92
2022-09-07T07:47:10.041Z,3.03
2022-09-07T07:47:41.942Z,3.10
2022-09-07T07:48:13.651Z,3.17
2022-09-07T07:48:48.254Z,3.75
2022-09-07T07:49:20.351Z,3.10
2022-09-07T07:50:30.547Z,3.55
2022-09-07T07:50:43.640Z,2.97
2022-09-07T07:52:49.920Z,2.90
2022-09-07T07:54:09.077Z,2.47
2022-09-07T07:54:40.765Z,2.63
2022-09-07T07:56:05.808Z,2.50
2022-09-07T07:56:37.493Z,3.22
2022-09-07T07:57:09.288Z,2.85
2022-09-07T07:57:41.069Z,3.00
2022-09-07T07:58:12.934Z,2.92
2022-09-07T07:58:46.805Z,3.22
2022-09-07T07:59:18.536Z,3.22
2022-09-07T07:59:50.242Z,2.58
2022-09-07T08:00:37.365Z,3.00
2022-09-07T08:01:16.574Z,2.90
2022-09-07T08:01:48.545Z,2.50
2022-09-07T08:02:20.344Z,2.72
2022-09-07T08:02:52.070Z,2.80
2022-09-07T08:03:25.306Z,3.28
2022-09-07T08:03:57.247Z,2.63
2022-09-07T08:04:28.865Z,2.40
2022-09-07T08:05:01.338Z,2.70
2022-09-07T08:05:36.324Z,2.83
2022-09-07T08:06:11.176Z,2.78
2022-09-07T08:06:43.069Z,2.90
2022-09-07T08:07:15.720Z,2.70
2022-09-07T08:07:47.469Z,2.63
2022-09-07T08:08:19.312Z,3.58
2022-09-07T08:08:51.089Z,2.60
2022-09-07T08:09:22.862Z,2.53
2022-09-07T08:09:54.512Z,2.30
2022-09-07T08:10:28.637Z,2.38
2022-09-07T08:11:04.765Z,2.60
2022-09-07T08:11:36.494Z,2.75
2022-09-07T08:12:11.266Z,2.72
2022-09-07T08:12:43.056Z,2.30
2022-09-07T08:13:33.830Z,2.67
2022-09-07T08:14:06.218Z,2.67
2022-09-07T08:14:41.159Z,2.45
2022-09-07T08:15:13.378Z,2.38
2022-09-07T08:15:46.069Z,2.17
2022-09-07T08:16:18.580Z,2.47
2022-09-07T08:16:50.351Z,3.10